createdAt,value
2023-09-24T00:01:14.778Z,14.09
2023-09-24T00:03:41.880Z,14.11
2023-09-24T00:06:10.712Z,14.09
2023-09-24T00:08:37.912Z,14.09
2023-09-24T00:11:04.783Z,14.04
2023-09-24T00:13:35.346Z,14.00
2023-09-24T00:16:07.656Z,13.98
2023-09-24T00:18:35.170Z,13.88
2023-09-24T00:21:02.150Z,13.85
2023-09-24T00:23:30.166Z,13.85
2023-09-24T00:25:57.977Z,13.87
2023-09-24T00:28:25.358Z,13.88
2023-09-24T00:30:56.465Z,13.90
2023-09-24T00:33:25.349Z,13.88
2023-09-24T00:35:52.874Z,13.89
2023-09-24T00:38:19.903Z,13.87
2023-09-24T00:40:47.314Z,13.88
2023-09-24T00:43:34.947Z,13.76
2023-09-24T00:46:06.066Z,13.87
2023-09-24T00:48:33.991Z,13.85
2023-09-24T00:51:22.990Z,13.77
2023-09-24T00:53:52.085Z,13.83
2023-09-24T00:56:19.210Z,13.82
2023-09-24T00:58:51.766Z,13.83
2023-09-24T01:01:19.064Z,13.61
2023-09-24T01:03:48.747Z,13.74
2023-09-24T01:06:16.060Z,13.74
2023-09-24T01:08:45.898Z,13.75
2023-09-24T01:11:13.195Z,13.72
2023-09-24T01:13:45.631Z,13.73
2023-09-24T01:16:14.271Z,13.73
2023-09-24T01:18:43.240Z,13.71
2023-09-24T01:21:17.945Z,13.65
2023-09-24T01:23:47.092Z,13.72
2023-09-24T01:26:14.722Z,13.72
2023-09-24T01:28:41.790Z,13.76
2023-09-24T01:31:09.384Z,13.74
2023-09-24T01:33:40.757Z,13.73
2023-09-24T01:36:11.157Z,13.76
2023-09-24T01:38:41.590Z,13.75
2023-09-24T01:41:12.128Z,13.75
2023-09-24T01:43:45.128Z,13.71
2023-09-24T01:46:15.113Z,13.72
2023-09-24T01:48:44.327Z,13.74
2023-09-24T01:51:12.485Z,13.71
2023-09-24T01:53:40.369Z,13.73
2023-09-24T01:56:09.395Z,13.77
2023-09-24T01:58:40.536Z,13.75
2023-09-24T02:01:10.872Z,13.75
2023-09-24T02:03:38.011Z,13.74
2023-09-24T02:06:06.917Z,13.76
2023-09-24T02:08:34.189Z,13.77
2023-09-24T02:11:01.146Z,13.77
2023-09-24T02:13:28.739Z,13.79
2023-09-24T02:15:55.541Z,13.77
2023-09-24T02:18:23.547Z,13.79
2023-09-24T02:20:53.560Z,13.78
2023-09-24T02:23:22.103Z,13.75
2023-09-24T02:25:50.152Z,13.80
2023-09-24T02:28:19.156Z,13.77
2023-09-24T02:30:47.307Z,13.76
2023-09-24T02:33:14.427Z,13.73
2023-09-24T02:35:41.492Z,13.73
2023-09-24T02:38:10.111Z,13.72
2023-09-24T02:40:37.184Z,13.71
2023-09-24T02:43:07.196Z,13.70
2023-09-24T02:45:34.541Z,13.66
2023-09-24T02:48:01.727Z,13.62
2023-09-24T02:50:30.186Z,13.64
2023-09-24T02:52:59.939Z,13.60
2023-09-24T02:55:29.184Z,13.56
2023-09-24T02:57:56.903Z,13.54
2023-09-24T03:00:34.705Z,13.55
2023-09-24T03:03:04.513Z,13.56
2023-09-24T03:05:32.929Z,13.56
2023-09-24T03:08:01.635Z,13.53
2023-09-24T03:10:36.745Z,13.52
2023-09-24T03:13:06.173Z,13.54
2023-09-24T03:15:33.897Z,13.53
2023-09-24T03:18:03.831Z,13.52
2023-09-24T03:20:31.172Z,13.52
2023-09-24T03:23:03.816Z,13.49
2023-09-24T03:25:30.907Z,13.46
2023-09-24T03:27:59.241Z,13.46
2023-09-24T03:30:26.874Z,13.45
2023-09-24T03:32:56.246Z,13.46
2023-09-24T03:35:27.746Z,13.41
2023-09-24T03:37:55.711Z,13.43
2023-09-24T03:40:27.295Z,13.39
2023-09-24T03:42:54.584Z,13.38
2023-09-24T03:45:24.517Z,13.35
2023-09-24T03:47:53.013Z,13.24
2023-09-24T03:50:20.050Z,13.19
2023-09-24T03:52:51.443Z,13.16
2023-09-24T03:55:20.077Z,13.11
2023-09-24T03:57:48.474Z,13.13
2023-09-24T04:00:17.648Z,13.09
2023-09-24T04:02:49.446Z,13.03
2023-09-24T04:05:23.198Z,13.00
2023-09-24T04:07:54.212Z,12.99
2023-09-24T04:10:22.805Z,12.93
2023-09-24T04:12:53.513Z,12.89
2023-09-24T04:15:23.236Z,12.85
2023-09-24T04:17:50.939Z,12.84
2023-09-24T04:20:21.123Z,12.85
2023-09-24T04:22:48.553Z,12.85
2023-09-24T04:25:18.306Z,12.82
2023-09-24T04:27:45.374Z,12.78
2023-09-24T04:30:12.899Z,12.78
2023-09-24T04:32:40.905Z,12.74
2023-09-24T04:35:10.561Z,12.75
2023-09-24T04:37:38.632Z,12.73
2023-09-24T04:40:07.087Z,12.74
2023-09-24T04:42:35.402Z,12.74
2023-09-24T04:45:02.355Z,12.71
2023-09-24T04:47:30.900Z,12.69
2023-09-24T04:49:58.205Z,12.65
2023-09-24T04:52:31.759Z,12.66
2023-09-24T04:54:59.160Z,12.62
2023-09-24T04:57:26.185Z,12.64
2023-09-24T04:59:54.709Z,12.60
2023-09-24T05:02:22.544Z,12.60
2023-09-24T05:04:50.052Z,12.54
2023-09-24T05:07:17.441Z,12.53
2023-09-24T05:09:44.786Z,12.55
2023-09-24T05:12:14.978Z,12.48
2023-09-24T05:14:41.815Z,12.43
2023-09-24T05:17:08.715Z,12.39
2023-09-24T05:19:35.689Z,12.42
2023-09-24T05:22:02.519Z,12.38
2023-09-24T05:24:31.896Z,12.36
2023-09-24T05:26:59.227Z,12.32
2023-09-24T05:29:25.999Z,12.33
2023-09-24T05:31:52.729Z,12.34
2023-09-24T05:34:19.454Z,12.27
2023-09-24T05:36:46.481Z,12.24
2023-09-24T05:39:13.784Z,12.26
2023-09-24T05:41:40.752Z,12.23
2023-09-24T05:44:07.583Z,12.21
2023-09-24T05:46:34.458Z,12.22
2023-09-24T05:49:01.777Z,12.18
2023-09-24T05:51:28.599Z,12.18
2023-09-24T05:53:55.405Z,12.19
2023-09-24T05:56:22.169Z,12.16
2023-09-24T05:58:49.007Z,12.11
2023-09-24T06:01:18.742Z,12.10
2023-09-24T06:03:45.882Z,12.03
2023-09-24T06:06:13.564Z,12.04
2023-09-24T06:08:40.919Z,12.07
2023-09-24T06:11:09.192Z,12.01
2023-09-24T06:13:35.917Z,12.02
2023-09-24T06:16:03.623Z,12.03
2023-09-24T06:18:30.661Z,12.05
2023-09-24T06:20:58.368Z,12.11
2023-09-24T06:23:25.521Z,12.16
2023-09-24T06:25:58.850Z,12.10
2023-09-24T06:28:26.119Z,12.07
2023-09-24T06:31:00.745Z,12.03
2023-09-24T06:33:28.295Z,12.14
2023-09-24T06:35:56.088Z,12.11
2023-09-24T06:38:22.992Z,12.14
2023-09-24T06:41:00.022Z,12.10
2023-09-24T06:43:26.978Z,12.23
2023-09-24T06:45:56.063Z,12.25
2023-09-24T06:48:26.970Z,12.29
2023-09-24T06:50:57.221Z,12.29
2023-09-24T06:53:24.968Z,12.26
2023-09-24T06:55:51.944Z,12.31
2023-09-24T06:58:18.922Z,12.31
2023-09-24T07:00:45.716Z,12.36
2023-09-24T07:03:12.715Z,12.39
2023-09-24T07:05:39.983Z,12.38
2023-09-24T07:08:06.906Z,12.35
2023-09-24T07:10:33.716Z,12.40
2023-09-24T07:13:01.007Z,12.44
2023-09-24T07:15:28.431Z,12.50
2023-09-24T07:17:56.476Z,12.54
2023-09-24T07:20:24.096Z,12.58
2023-09-24T07:22:51.062Z,12.59
2023-09-24T07:25:17.810Z,12.61
2023-09-24T07:27:44.961Z,12.59
2023-09-24T07:30:12.162Z,12.60
2023-09-24T07:32:39.223Z,12.60
2023-09-24T07:35:06.621Z,12.60
2023-09-24T07:37:33.364Z,12.64
2023-09-24T07:40:00.273Z,12.65
2023-09-24T07:42:27.374Z,12.66
2023-09-24T07:44:54.466Z,12.71
2023-09-24T07:47:21.428Z,12.75
2023-09-24T07:49:48.273Z,12.79
2023-09-24T07:52:15.526Z,12.78
2023-09-24T07:54:42.388Z,12.83
2023-09-24T07:57:09.346Z,12.88
2023-09-24T07:59:36.277Z,12.91
2023-09-24T08:02:03.560Z,12.89
2023-09-24T08:04:31.459Z,12.96
2023-09-24T08:06:58.228Z,12.93
2023-09-24T08:09:27.595Z,12.92
2023-09-24T08:11:56.108Z,12.91
2023-09-24T08:14:23.344Z,12.90
2023-09-24T08:16:51.421Z,12.95
2023-09-24T08:19:18.562Z,12.97
2023-09-24T08:21:45.497Z,13.03
2023-09-24T08:24:12.294Z,13.07
2023-09-24T08:26:39.166Z,13.11
2023-09-24T08:29:08.128Z,13.14
2023-09-24T08:31:36.140Z,13.13
2023-09-24T08:34:04.713Z,13.18
2023-09-24T08:36:31.781Z,13.23
2023-09-24T08:38:58.777Z,13.26
2023-09-24T08:41:25.803Z,13.34
2023-09-24T08:43:56.143Z,13.37
2023-09-24T08:46:24.016Z,13.43
2023-09-24T08:48:52.928Z,13.44
2023-09-24T08:51:19.979Z,13.48
2023-09-24T08:53:46.805Z,13.54
2023-09-24T08:56:15.776Z,13.55
2023-09-24T08:58:43.464Z,13.60
2023-09-24T09:01:11.086Z,13.62
2023-09-24T09:03:38.883Z,13.62
2023-09-24T09:06:05.796Z,13.63
2023-09-24T09:08:55.537Z,13.63
2023-09-24T09:11:24.007Z,13.69
2023-09-24T09:13:51.160Z,13.72
2023-09-24T09:16:18.480Z,13.77
2023-09-24T09:18:59.685Z,13.79
2023-09-24T09:21:26.878Z,13.84
2023-09-24T09:23:53.635Z,13.87
2023-09-24T09:26:27.917Z,13.87
2023-09-24T09:28:54.708Z,13.93
2023-09-24T09:31:21.576Z,13.96
2023-09-24T09:33:48.586Z,14.00
2023-09-24T09:36:31.740Z,14.00
2023-09-24T09:38:59.808Z,14.06
2023-09-24T09:41:29.654Z,14.08
2023-09-24T09:43:59.942Z,14.11
2023-09-24T09:46:26.787Z,14.12
2023-09-24T09:48:58.299Z,14.15
2023-09-24T09:51:26.582Z,14.20
2023-09-24T09:53:55.644Z,14.25
2023-09-24T09:56:25.666Z,14.26
2023-09-24T09:58:53.788Z,14.27
2023-09-24T10:01:22.613Z,14.31
2023-09-24T10:03:52.277Z,14.34
2023-09-24T10:06:19.572Z,14.41
2023-09-24T10:08:50.557Z,14.44
2023-09-24T10:11:32.413Z,14.44
2023-09-24T10:14:01.337Z,14.50
2023-09-24T10:16:31.802Z,14.54
2023-09-24T10:19:02.225Z,14.60
2023-09-24T10:21:38.798Z,14.64
2023-09-24T10:24:11.917Z,14.67
2023-09-24T10:26:51.781Z,14.71
2023-09-24T10:29:45.748Z,14.72
2023-09-24T10:32:16.417Z,14.82
2023-09-24T10:34:52.113Z,14.85
2023-09-24T10:37:20.045Z,14.89
2023-09-24T10:39:58.953Z,14.89
2023-09-24T10:42:26.840Z,14.98
2023-09-24T10:45:09.237Z,14.95
2023-09-24T10:47:45.108Z,15.01
2023-09-24T10:50:13.686Z,15.06
2023-09-24T10:53:00.719Z,15.04
2023-09-24T10:55:30.767Z,15.12
2023-09-24T10:58:02.429Z,15.14
2023-09-24T11:00:31.072Z,15.18
2023-09-24T11:03:06.259Z,15.18
2023-09-24T11:05:43.047Z,15.18
2023-09-24T11:08:11.498Z,15.23
2023-09-24T11:10:39.707Z,15.30
2023-09-24T11:13:07.396Z,15.33
2023-09-24T11:15:38.661Z,15.34
2023-09-24T11:18:06.777Z,15.40
2023-09-24T11:20:35.991Z,15.42
2023-09-24T11:23:10.040Z,15.46
2023-09-24T11:25:37.268Z,15.48
2023-09-24T11:28:05.563Z,15.51
2023-09-24T11:30:43.408Z,15.49
2023-09-24T11:33:13.374Z,15.57
2023-09-24T11:35:40.622Z,15.61
2023-09-24T11:38:07.435Z,15.62
2023-09-24T11:40:39.629Z,15.69
2023-09-24T11:43:12.401Z,15.68
2023-09-24T11:45:54.382Z,15.68
2023-09-24T11:48:26.078Z,15.75
2023-09-24T11:51:03.141Z,15.78
2023-09-24T11:53:30.278Z,15.83
2023-09-24T11:55:58.803Z,15.85
2023-09-24T11:58:29.331Z,15.87
2023-09-24T12:00:58.034Z,15.90
2023-09-24T12:03:25.561Z,15.92
2023-09-24T12:05:52.845Z,15.94
2023-09-24T12:08:20.755Z,15.99
2023-09-24T12:10:47.756Z,16.00
2023-09-24T12:13:15.258Z,15.99
2023-09-24T12:15:42.126Z,16.03
2023-09-24T12:18:10.433Z,16.04
2023-09-24T12:20:39.337Z,16.08
2023-09-24T12:23:08.553Z,16.10
2023-09-24T12:25:39.756Z,16.15
2023-09-24T12:28:11.599Z,16.16
2023-09-24T12:30:39.503Z,16.17
2023-09-24T12:33:07.948Z,16.20
2023-09-24T12:35:38.774Z,16.23
2023-09-24T12:38:05.744Z,16.27
2023-09-24T12:40:32.729Z,16.28
2023-09-24T12:42:59.567Z,16.32
2023-09-24T12:45:29.011Z,16.36
2023-09-24T12:47:55.988Z,16.37
2023-09-24T12:50:22.963Z,16.41
2023-09-24T12:52:49.911Z,16.37
2023-09-24T12:55:17.738Z,16.39
2023-09-24T12:57:45.881Z,16.40
2023-09-24T13:00:14.175Z,16.44
2023-09-24T13:02:42.822Z,16.47
2023-09-24T13:05:11.013Z,16.48
2023-09-24T13:07:40.182Z,16.50
2023-09-24T13:10:07.979Z,16.54
2023-09-24T13:12:34.945Z,16.55
2023-09-24T13:15:02.331Z,16.55
2023-09-24T13:17:30.057Z,16.60
2023-09-24T13:19:56.895Z,16.59
2023-09-24T13:22:23.774Z,16.60
2023-09-24T13:24:50.612Z,16.60
2023-09-24T13:27:18.878Z,16.62
2023-09-24T13:29:45.676Z,16.60
2023-09-24T13:32:13.100Z,16.63
2023-09-24T13:34:39.993Z,16.64
2023-09-24T13:37:06.793Z,16.63
2023-09-24T13:39:33.660Z,16.65
2023-09-24T13:42:00.779Z,16.66
2023-09-24T13:44:28.020Z,16.63
2023-09-24T13:46:54.869Z,16.66
2023-09-24T13:49:24.948Z,16.66
2023-09-24T13:51:54.336Z,16.66
2023-09-24T13:54:25.029Z,16.65
2023-09-24T13:56:59.729Z,16.65
2023-09-24T13:59:27.958Z,16.69
2023-09-24T14:01:54.872Z,16.69
2023-09-24T14:04:22.325Z,16.70
2023-09-24T14:06:49.242Z,16.68
2023-09-24T14:09:34.748Z,16.69
2023-09-24T14:12:22.826Z,16.68
2023-09-24T14:14:50.514Z,16.67
2023-09-24T14:17:17.414Z,16.69
2023-09-24T14:19:44.184Z,16.68
2023-09-24T14:22:11.045Z,16.71
2023-09-24T14:24:39.320Z,16.72
2023-09-24T14:27:08.679Z,16.72
2023-09-24T14:29:35.665Z,16.71
2023-09-24T14:32:02.780Z,16.70
2023-09-24T14:34:29.956Z,16.74
2023-09-24T14:37:00.374Z,16.72
2023-09-24T14:39:30.851Z,16.71
2023-09-24T14:42:06.463Z,16.74
2023-09-24T14:44:37.204Z,16.75
2023-09-24T14:47:04.245Z,16.76
2023-09-24T14:49:33.787Z,16.78
2023-09-24T14:52:00.694Z,16.78
2023-09-24T14:54:27.868Z,16.79
2023-09-24T14:56:54.734Z,16.79
2023-09-24T14:59:21.477Z,16.78
2023-09-24T15:01:48.430Z,16.77
2023-09-24T15:04:16.628Z,16.75
2023-09-24T15:06:45.468Z,16.75
2023-09-24T15:09:13.768Z,16.74
2023-09-24T15:11:40.898Z,16.71
2023-09-24T15:14:07.925Z,16.73
2023-09-24T15:16:37.312Z,16.75
2023-09-24T15:19:17.069Z,16.73
2023-09-24T15:21:44.405Z,16.75
2023-09-24T15:24:13.729Z,16.75
2023-09-24T15:26:49.395Z,16.76
2023-09-24T15:29:16.515Z,16.73
2023-09-24T15:31:46.761Z,16.72
2023-09-24T15:34:23.682Z,16.74
2023-09-24T15:36:52.149Z,16.72
2023-09-24T15:39:19.286Z,16.75
2023-09-24T15:41:53.082Z,16.73
2023-09-24T15:44:19.897Z,16.73
2023-09-24T15:46:47.099Z,16.72
2023-09-24T15:49:27.402Z,16.74
2023-09-24T15:52:02.064Z,16.75
2023-09-24T15:54:29.663Z,16.71
2023-09-24T15:57:00.532Z,16.71
2023-09-24T15:59:31.660Z,16.75
2023-09-24T16:02:00.790Z,16.75
2023-09-24T16:04:30.193Z,16.72
2023-09-24T16:06:57.067Z,16.75
2023-09-24T16:09:23.806Z,16.75
2023-09-24T16:11:50.642Z,16.75
2023-09-24T16:14:17.452Z,16.75
2023-09-24T16:16:44.191Z,16.72
2023-09-24T16:19:11.233Z,16.68
2023-09-24T16:21:39.821Z,16.67
2023-09-24T16:24:07.009Z,16.66
2023-09-24T16:26:33.860Z,16.62
2023-09-24T16:29:01.539Z,16.61
2023-09-24T16:31:30.458Z,16.61
2023-09-24T16:33:57.485Z,16.58
2023-09-24T16:36:24.284Z,16.58
2023-09-24T16:38:51.104Z,16.55
2023-09-24T16:41:18.015Z,16.52
2023-09-24T16:43:46.286Z,16.47
2023-09-24T16:46:13.343Z,16.47
2023-09-24T16:48:40.230Z,16.44
2023-09-24T16:51:07.244Z,16.43
2023-09-24T16:53:34.088Z,16.43
2023-09-24T16:56:00.912Z,16.42
2023-09-24T16:58:27.729Z,16.37
2023-09-24T17:00:54.538Z,16.39
2023-09-24T17:03:21.533Z,16.34
2023-09-24T17:05:48.598Z,16.33
2023-09-24T17:08:15.380Z,16.34
2023-09-24T17:10:49.165Z,16.27
2023-09-24T17:13:16.133Z,16.26
2023-09-24T17:15:42.936Z,16.25
2023-09-24T17:18:12.944Z,16.23
2023-09-24T17:20:39.754Z,16.24
2023-09-24T17:23:06.646Z,16.21
2023-09-24T17:25:33.445Z,16.17
2023-09-24T17:28:00.370Z,16.16
2023-09-24T17:30:29.540Z,16.13
2023-09-24T17:32:56.381Z,16.11
2023-09-24T17:35:23.202Z,16.10
2023-09-24T17:37:50.039Z,16.05
2023-09-24T17:40:16.924Z,16.04
2023-09-24T17:42:45.396Z,16.02
2023-09-24T17:45:13.765Z,15.98
2023-09-24T17:47:40.709Z,15.97
2023-09-24T17:50:10.462Z,15.93
2023-09-24T17:52:37.540Z,15.93
2023-09-24T17:55:04.489Z,15.88
2023-09-24T17:57:31.353Z,15.91
2023-09-24T17:59:58.222Z,15.88
2023-09-24T18:02:25.099Z,15.87
2023-09-24T18:04:52.698Z,15.84
2023-09-24T18:07:19.509Z,15.83
2023-09-24T18:09:46.291Z,15.81
2023-09-24T18:12:13.093Z,15.79
2023-09-24T18:14:40.191Z,15.79
2023-09-24T18:17:07.974Z,15.76
2023-09-24T18:19:35.365Z,15.75
2023-09-24T18:22:02.251Z,15.73
2023-09-24T18:24:34.226Z,15.74
2023-09-24T18:27:01.099Z,15.69
2023-09-24T18:29:28.348Z,15.68
2023-09-24T18:31:55.523Z,15.67
2023-09-24T18:34:22.398Z,15.63
2023-09-24T18:36:49.808Z,15.63
2023-09-24T18:39:18.821Z,15.59
2023-09-24T18:41:45.770Z,15.62
2023-09-24T18:44:13.217Z,15.64
2023-09-24T18:46:40.482Z,15.68
2023-09-24T18:49:07.468Z,15.67
2023-09-24T18:51:34.262Z,15.65
2023-09-24T18:54:01.043Z,15.63
2023-09-24T18:56:27.935Z,15.61
2023-09-24T18:58:54.812Z,15.60
2023-09-24T19:01:21.671Z,15.58
2023-09-24T19:03:48.790Z,15.57
2023-09-24T19:06:16.085Z,15.55
2023-09-24T19:08:51.757Z,15.53
2023-09-24T19:11:19.444Z,15.53
2023-09-24T19:13:46.425Z,15.53
2023-09-24T19:16:13.836Z,15.54
2023-09-24T19:18:40.954Z,15.50
2023-09-24T19:21:07.948Z,15.50
2023-09-24T19:23:35.063Z,15.49
2023-09-24T19:26:10.087Z,15.41
2023-09-24T19:28:37.678Z,15.45
2023-09-24T19:31:08.648Z,15.45
2023-09-24T19:33:38.339Z,15.47
2023-09-24T19:36:05.686Z,15.46
2023-09-24T19:38:32.733Z,15.43
2023-09-24T19:41:03.917Z,15.41
2023-09-24T19:43:31.489Z,15.37
2023-09-24T19:45:59.837Z,15.36
2023-09-24T19:48:27.044Z,15.30
2023-09-24T19:50:53.981Z,15.32
2023-09-24T19:53:21.277Z,15.30
2023-09-24T19:55:49.320Z,15.30
2023-09-24T19:58:16.488Z,15.24
2023-09-24T20:00:44.005Z,15.27
2023-09-24T20:03:11.479Z,15.25
2023-09-24T20:05:42.448Z,15.23
2023-09-24T20:08:10.594Z,15.24
2023-09-24T20:10:37.842Z,15.23
2023-09-24T20:13:04.752Z,15.23
2023-09-24T20:15:32.233Z,15.21
2023-09-24T20:18:02.048Z,15.18
2023-09-24T20:20:29.120Z,15.15
2023-09-24T20:22:56.090Z,15.15
2023-09-24T20:25:43.635Z,15.04
2023-09-24T20:28:11.005Z,15.12
2023-09-24T20:30:38.597Z,15.13
2023-09-24T20:33:17.258Z,15.10
2023-09-24T20:35:52.979Z,15.07
2023-09-24T20:38:19.793Z,15.07
2023-09-24T20:40:48.116Z,15.06
2023-09-24T20:43:16.014Z,15.03
2023-09-24T20:45:57.781Z,14.97
2023-09-24T20:48:24.836Z,15.01
2023-09-24T20:50:51.788Z,14.96
2023-09-24T20:53:18.668Z,14.97
2023-09-24T20:55:45.575Z,14.96
2023-09-24T20:58:12.636Z,14.94
2023-09-24T21:00:42.288Z,14.91
2023-09-24T21:03:10.149Z,14.90
2023-09-24T21:05:37.886Z,14.90
2023-09-24T21:08:05.938Z,14.83
2023-09-24T21:10:32.794Z,14.83
2023-09-24T21:12:59.554Z,14.85
2023-09-24T21:15:26.517Z,14.84
2023-09-24T21:17:53.314Z,14.83
2023-09-24T21:20:20.144Z,14.78
2023-09-24T21:22:47.049Z,14.77
2023-09-24T21:25:13.828Z,14.74
2023-09-24T21:27:42.422Z,14.73
2023-09-24T21:30:09.887Z,14.74
2023-09-24T21:32:36.851Z,14.72
2023-09-24T21:35:03.963Z,14.74
2023-09-24T21:37:31.467Z,14.70
2023-09-24T21:39:58.281Z,14.68
2023-09-24T21:42:25.139Z,14.65
2023-09-24T21:44:51.975Z,14.64
2023-09-24T21:47:18.797Z,14.63
2023-09-24T21:49:45.554Z,14.56
2023-09-24T21:52:12.695Z,14.50
2023-09-24T21:54:39.522Z,14.51
2023-09-24T21:57:06.449Z,14.53
2023-09-24T21:59:33.276Z,14.50
2023-09-24T22:02:01.806Z,14.51
2023-09-24T22:04:28.909Z,14.53
2023-09-24T22:06:55.908Z,14.48
2023-09-24T22:09:22.812Z,14.46
2023-09-24T22:11:51.048Z,14.44
2023-09-24T22:14:18.302Z,14.42
2023-09-24T22:16:46.385Z,14.39
2023-09-24T22:19:13.201Z,14.37
2023-09-24T22:21:40.060Z,14.34
2023-09-24T22:24:08.331Z,14.32
2023-09-24T22:26:35.195Z,14.30
2023-09-24T22:29:03.816Z,14.27
2023-09-24T22:31:30.689Z,14.26
2023-09-24T22:33:57.565Z,14.19
2023-09-24T22:36:25.224Z,14.17
2023-09-24T22:38:52.301Z,14.19
2023-09-24T22:41:19.140Z,14.14
2023-09-24T22:43:45.936Z,14.14
2023-09-24T22:46:12.949Z,14.09
2023-09-24T22:48:40.740Z,14.05
2023-09-24T22:51:08.388Z,14.06
2023-09-24T22:53:35.519Z,14.10
2023-09-24T22:56:02.303Z,14.04
2023-09-24T22:58:29.162Z,14.02
2023-09-24T23:00:56.500Z,14.04
2023-09-24T23:03:23.457Z,13.96
2023-09-24T23:05:50.664Z,13.96
2023-09-24T23:08:17.474Z,13.97
2023-09-24T23:10:44.469Z,13.95
2023-09-24T23:13:12.304Z,13.97
2023-09-24T23:15:39.551Z,13.92
2023-09-24T23:18:07.038Z,13.84
2023-09-24T23:20:34.025Z,13.86
2023-09-24T23:23:00.899Z,13.85
2023-09-24T23:25:27.699Z,13.86
2023-09-24T23:27:54.715Z,13.85
2023-09-24T23:30:23.500Z,13.82
2023-09-24T23:32:50.690Z,13.82
2023-09-24T23:35:18.027Z,13.79
2023-09-24T23:37:45.042Z,13.78
2023-09-24T23:40:18.809Z,13.75
2023-09-24T23:42:46.208Z,13.73
2023-09-24T23:45:13.916Z,13.70
2023-09-24T23:47:41.364Z,13.68
2023-09-24T23:50:08.887Z,13.71
2023-09-24T23:52:35.633Z,13.66
2023-09-24T23:55:04.021Z,13.66
2023-09-24T23:57:30.894Z,13.61
2023-09-24T23:59:58.550Z,13.61
